createdAt,value
2022-08-16T00:02:33.313Z,23.27
2022-08-16T00:05:00.967Z,23.13
2022-08-16T00:07:29.742Z,23.19
2022-08-16T00:09:57.588Z,23.16
2022-08-16T00:12:27.545Z,23.17
2022-08-16T00:14:56.421Z,22.91
2022-08-16T00:17:24.977Z,23.09
2022-08-16T00:19:53.631Z,23.12
2022-08-16T00:22:24.854Z,23.17
2022-08-16T00:24:54.343Z,23.13
2022-08-16T00:27:21.990Z,23.12
2022-08-16T00:30:09.057Z,23.12
2022-08-16T00:32:35.769Z,23.13
2022-08-16T00:35:02.383Z,23.13
2022-08-16T00:37:56.980Z,23.11
2022-08-16T00:40:34.075Z,23.09
2022-08-16T00:43:04.665Z,23.06
2022-08-16T00:45:31.173Z,22.98
2022-08-16T00:48:31.106Z,23.03
2022-08-16T00:50:55.388Z,22.87
2022-08-16T00:53:22.209Z,22.87
2022-08-16T00:56:05.074Z,22.95
2022-08-16T00:58:35.359Z,23.01
2022-08-16T01:01:03.631Z,22.98
2022-08-16T01:03:37.085Z,22.89
2022-08-16T01:06:40.340Z,22.94
2022-08-16T01:09:00.109Z,22.86
2022-08-16T01:11:27.324Z,22.91
2022-08-16T01:14:06.727Z,22.93
2022-08-16T01:16:33.987Z,22.91
2022-08-16T01:19:15.283Z,22.89
2022-08-16T01:21:52.229Z,22.90
2022-08-16T01:24:51.781Z,22.91
2022-08-16T01:27:23.916Z,22.81
2022-08-16T01:30:30.895Z,22.83
2022-08-16T01:33:13.988Z,22.78
2022-08-16T01:35:56.306Z,22.82
2022-08-16T01:38:30.667Z,22.82
2022-08-16T01:41:03.785Z,22.80
2022-08-16T01:43:33.473Z,22.78
2022-08-16T01:46:37.156Z,22.77
2022-08-16T01:48:56.454Z,22.76
2022-08-16T01:51:26.030Z,22.76
2022-08-16T01:53:55.524Z,22.76
2022-08-16T01:56:30.735Z,22.71
2022-08-16T01:59:04.588Z,22.68
2022-08-16T02:01:32.461Z,22.67
2022-08-16T02:04:10.843Z,22.65
2022-08-16T02:06:46.607Z,22.61
2022-08-16T02:09:17.765Z,22.54
2022-08-16T02:11:53.099Z,22.49
2022-08-16T02:14:27.424Z,22.44
2022-08-16T02:17:01.710Z,22.48
2022-08-16T02:19:58.865Z,22.47
2022-08-16T02:22:34.412Z,22.47
2022-08-16T02:25:10.112Z,22.46
2022-08-16T02:27:38.879Z,22.41
2022-08-16T02:30:37.553Z,22.38
2022-08-16T02:33:03.492Z,22.38
2022-08-16T02:35:30.973Z,22.34
2022-08-16T02:38:01.712Z,22.34
2022-08-16T02:40:36.339Z,22.30
2022-08-16T02:43:04.722Z,22.29
2022-08-16T02:45:32.309Z,22.28
2022-08-16T02:48:01.894Z,22.24
2022-08-16T02:50:54.152Z,22.21
2022-08-16T02:53:31.703Z,22.22
2022-08-16T02:55:59.128Z,22.11
2022-08-16T02:58:27.986Z,21.97
2022-08-16T03:00:57.424Z,22.02
2022-08-16T03:03:27.212Z,21.91
2022-08-16T03:06:39.628Z,21.92
2022-08-16T03:09:15.030Z,22.00
2022-08-16T03:11:47.516Z,22.01
2022-08-16T03:14:15.029Z,21.99
2022-08-16T03:16:59.964Z,21.95
2022-08-16T03:19:52.806Z,21.95
2022-08-16T03:22:28.037Z,21.91
2022-08-16T03:24:59.069Z,21.89
2022-08-16T03:27:30.759Z,21.88
2022-08-16T03:30:20.446Z,21.84
2022-08-16T03:32:52.244Z,21.83
2022-08-16T03:35:32.612Z,21.80
2022-08-16T03:38:33.659Z,21.77
2022-08-16T03:40:57.267Z,21.75
2022-08-16T03:43:51.543Z,21.73
2022-08-16T03:46:47.826Z,21.70
2022-08-16T03:49:05.003Z,21.67
2022-08-16T03:51:34.337Z,21.64
2022-08-16T03:54:04.731Z,21.63
2022-08-16T03:56:40.257Z,21.62
2022-08-16T03:59:29.849Z,21.62
2022-08-16T04:02:01.293Z,21.55
2022-08-16T04:04:32.855Z,21.53
2022-08-16T04:07:04.197Z,21.53
2022-08-16T04:09:35.574Z,21.53
2022-08-16T04:12:10.376Z,21.52
2022-08-16T04:14:46.472Z,21.45
2022-08-16T04:17:15.525Z,21.44
2022-08-16T04:19:45.433Z,21.42
2022-08-16T04:22:17.150Z,21.40
2022-08-16T04:24:54.314Z,21.41
2022-08-16T04:27:24.450Z,21.37
2022-08-16T04:29:52.482Z,21.35
2022-08-16T04:32:19.984Z,21.32
2022-08-16T04:34:48.028Z,21.34
2022-08-16T04:37:16.072Z,21.32
2022-08-16T04:39:55.823Z,21.31
2022-08-16T04:42:26.255Z,21.28
2022-08-16T04:44:57.608Z,21.29
2022-08-16T04:47:35.463Z,21.27
2022-08-16T04:50:30.266Z,21.28
2022-08-16T04:53:09.643Z,21.25
2022-08-16T04:55:42.077Z,21.12
2022-08-16T04:58:38.442Z,21.18
2022-08-16T05:00:58.137Z,21.21
2022-08-16T05:03:26.459Z,21.22
2022-08-16T05:05:59.614Z,21.23
2022-08-16T05:08:32.438Z,21.23
2022-08-16T05:11:08.253Z,21.21
2022-08-16T05:13:42.358Z,21.10
2022-08-16T05:16:23.288Z,21.21
2022-08-16T05:19:04.947Z,21.32
2022-08-16T05:21:37.975Z,21.44
2022-08-16T05:24:07.822Z,21.52
2022-08-16T05:26:37.500Z,21.64
2022-08-16T05:29:11.023Z,21.72
2022-08-16T05:31:48.349Z,21.91
2022-08-16T05:34:21.435Z,22.03
2022-08-16T05:36:52.218Z,22.07
2022-08-16T05:39:22.408Z,22.10
2022-08-16T05:41:51.749Z,22.28
2022-08-16T05:44:25.105Z,22.43
2022-08-16T05:47:00.378Z,22.57
2022-08-16T05:49:38.403Z,22.57
2022-08-16T05:52:11.694Z,22.64
2022-08-16T05:54:46.708Z,22.88
2022-08-16T05:57:16.213Z,22.73
2022-08-16T05:59:43.688Z,22.90
2022-08-16T06:02:10.446Z,23.01
2022-08-16T06:04:40.970Z,23.28
2022-08-16T06:07:24.991Z,23.39
2022-08-16T06:10:09.718Z,23.40
2022-08-16T06:12:38.107Z,23.21
2022-08-16T06:15:11.816Z,23.45
2022-08-16T06:17:44.657Z,23.40
2022-08-16T06:20:34.643Z,23.28
2022-08-16T06:23:03.982Z,23.39
2022-08-16T06:25:52.938Z,23.74
2022-08-16T06:28:34.869Z,23.50
2022-08-16T06:31:06.940Z,23.81
2022-08-16T06:33:41.191Z,23.99
2022-08-16T06:36:11.536Z,24.15
2022-08-16T06:38:55.316Z,24.08
2022-08-16T06:41:39.706Z,24.02
2022-08-16T06:44:20.669Z,24.35
2022-08-16T06:46:50.529Z,24.07
2022-08-16T06:49:19.767Z,24.19
2022-08-16T06:51:48.180Z,24.26
2022-08-16T06:54:20.430Z,24.34
2022-08-16T06:56:47.051Z,24.36
2022-08-16T06:59:19.266Z,24.52
2022-08-16T07:01:55.320Z,24.53
2022-08-16T07:04:31.770Z,24.83
2022-08-16T07:06:59.934Z,24.92
2022-08-16T07:09:29.829Z,24.81
2022-08-16T07:12:03.545Z,24.52
2022-08-16T07:14:35.176Z,24.47
2022-08-16T07:17:08.266Z,24.54
2022-08-16T07:20:29.919Z,24.82
2022-08-16T07:22:37.315Z,24.55
2022-08-16T07:25:16.832Z,24.39
2022-08-16T07:27:44.409Z,24.82
2022-08-16T07:30:39.293Z,24.95
2022-08-16T07:33:07.227Z,24.82
2022-08-16T07:35:36.781Z,24.83
2022-08-16T07:38:11.154Z,24.75
2022-08-16T07:41:00.953Z,24.96
2022-08-16T07:43:30.378Z,24.67
2022-08-16T07:46:01.506Z,24.67
2022-08-16T07:48:30.934Z,24.82
2022-08-16T07:50:59.158Z,24.80
2022-08-16T07:53:30.631Z,24.93
2022-08-16T07:56:00.271Z,25.16
2022-08-16T07:58:36.338Z,24.92
2022-08-16T08:01:10.431Z,24.73
2022-08-16T08:03:49.117Z,25.02
2022-08-16T08:06:22.782Z,25.19
2022-08-16T08:08:57.337Z,25.07
2022-08-16T08:11:28.074Z,24.95
2022-08-16T08:14:03.108Z,25.26
2022-08-16T08:16:32.779Z,25.22
2022-08-16T08:19:02.964Z,25.07
2022-08-16T08:21:58.193Z,24.96
2022-08-16T08:24:22.556Z,25.28
2022-08-16T08:27:02.195Z,25.16
2022-08-16T08:29:36.820Z,25.24
2022-08-16T08:32:58.806Z,25.43
2022-08-16T08:35:03.173Z,25.76
2022-08-16T08:37:55.653Z,25.68
2022-08-16T08:40:28.187Z,25.70
2022-08-16T08:43:11.842Z,25.71
2022-08-16T08:45:53.001Z,25.54
2022-08-16T08:48:33.771Z,25.86
2022-08-16T08:51:11.062Z,25.86
2022-08-16T08:53:57.208Z,25.83
2022-08-16T08:56:29.947Z,25.86
2022-08-16T08:59:13.073Z,25.85
2022-08-16T09:01:42.542Z,25.66
2022-08-16T09:04:14.882Z,25.84
2022-08-16T09:06:45.250Z,25.92
2022-08-16T09:09:16.548Z,25.95
2022-08-16T09:11:53.681Z,26.01
2022-08-16T09:14:33.086Z,26.33
2022-08-16T09:17:03.074Z,26.40
2022-08-16T09:19:40.776Z,26.35
2022-08-16T09:22:20.043Z,26.56
2022-08-16T09:24:52.456Z,26.38
2022-08-16T09:27:23.550Z,26.65
2022-08-16T09:29:59.728Z,26.67
2022-08-16T09:32:30.953Z,26.85
2022-08-16T09:34:59.736Z,26.87
2022-08-16T09:37:29.140Z,26.74
2022-08-16T09:39:58.104Z,27.03
2022-08-16T09:42:28.502Z,26.97
2022-08-16T09:45:11.741Z,27.23
2022-08-16T09:47:56.862Z,26.97
2022-08-16T09:50:33.277Z,27.07
2022-08-16T09:53:15.127Z,27.24
2022-08-16T09:55:49.534Z,27.33
2022-08-16T09:58:41.297Z,27.31
2022-08-16T10:01:11.649Z,27.33
2022-08-16T10:04:01.912Z,27.40
2022-08-16T10:06:27.546Z,27.21
2022-08-16T10:09:05.694Z,27.04
2022-08-16T10:12:17.873Z,27.60
2022-08-16T10:14:46.475Z,27.92
2022-08-16T10:17:13.659Z,28.02
2022-08-16T10:19:41.646Z,27.79
2022-08-16T10:22:10.845Z,27.47
2022-08-16T10:24:40.721Z,27.70
2022-08-16T10:27:27.060Z,27.56
2022-08-16T10:30:00.924Z,27.86
2022-08-16T10:32:34.236Z,27.82
2022-08-16T10:35:03.292Z,27.85
2022-08-16T10:37:32.271Z,27.95
2022-08-16T10:40:06.768Z,27.82
2022-08-16T10:42:53.357Z,28.13
2022-08-16T10:45:20.737Z,28.24
2022-08-16T10:47:48.554Z,28.04
2022-08-16T10:50:28.629Z,28.06
2022-08-16T10:52:59.413Z,27.92
2022-08-16T10:55:44.723Z,28.21
2022-08-16T10:58:17.117Z,28.47
2022-08-16T11:00:46.290Z,28.48
2022-08-16T11:06:03.376Z,28.19
2022-08-16T11:08:37.464Z,28.49
2022-08-16T11:11:11.501Z,28.54
2022-08-16T11:17:02.186Z,28.80
2022-08-16T11:19:15.452Z,28.77
2022-08-16T11:24:41.822Z,28.89
2022-08-16T11:27:23.455Z,28.73
2022-08-16T11:29:55.018Z,28.71
2022-08-16T11:32:31.940Z,28.72
2022-08-16T11:35:13.571Z,29.02
2022-08-16T11:40:44.209Z,29.40
2022-08-16T11:43:12.812Z,29.59
2022-08-16T11:45:44.379Z,29.44
2022-08-16T11:48:21.995Z,29.45
2022-08-16T11:50:48.675Z,29.69
2022-08-16T11:53:15.368Z,29.58
2022-08-16T11:55:44.179Z,29.48
2022-08-16T11:58:12.168Z,29.74
2022-08-16T12:00:51.560Z,29.96
2022-08-16T12:03:31.558Z,29.69
2022-08-16T12:06:25.401Z,29.75
2022-08-16T12:09:00.889Z,29.56
2022-08-16T12:11:31.602Z,29.75
2022-08-16T12:14:00.460Z,29.93
2022-08-16T12:16:31.419Z,29.88
2022-08-16T12:19:02.818Z,29.76
2022-08-16T12:21:57.833Z,29.67
2022-08-16T12:24:17.667Z,29.66
2022-08-16T12:26:44.514Z,29.72
2022-08-16T12:29:11.319Z,29.44
2022-08-16T12:31:37.886Z,29.47
2022-08-16T12:34:28.852Z,29.59
2022-08-16T12:36:55.996Z,29.59
2022-08-16T12:39:22.693Z,29.32
2022-08-16T12:41:49.873Z,29.18
2022-08-16T12:44:20.053Z,29.27
2022-08-16T12:47:06.801Z,29.81
2022-08-16T12:49:41.903Z,29.75
2022-08-16T12:52:09.617Z,29.93
2022-08-16T12:54:57.614Z,29.88
2022-08-16T12:57:25.493Z,29.90
2022-08-16T13:00:07.607Z,30.12
2022-08-16T13:02:36.361Z,30.08
2022-08-16T13:05:07.044Z,29.95
2022-08-16T13:07:37.441Z,29.74
2022-08-16T13:10:20.871Z,29.94
2022-08-16T13:12:58.753Z,29.95
2022-08-16T13:15:28.252Z,29.99
2022-08-16T13:17:56.778Z,30.01
2022-08-16T13:20:25.869Z,29.65
2022-08-16T13:22:58.777Z,30.05
2022-08-16T13:25:26.665Z,30.09
2022-08-16T13:28:01.880Z,29.96
2022-08-16T13:30:41.855Z,30.06
2022-08-16T13:33:13.364Z,30.18
2022-08-16T13:35:44.971Z,29.91
2022-08-16T13:38:24.404Z,30.01
2022-08-16T13:40:56.045Z,30.14
2022-08-16T13:43:23.338Z,30.18
2022-08-16T13:45:50.480Z,30.32
2022-08-16T13:48:24.510Z,30.31
2022-08-16T13:50:54.137Z,30.26
2022-08-16T13:53:24.596Z,30.35
2022-08-16T13:55:58.480Z,30.04
2022-08-16T13:58:37.209Z,29.99
2022-08-16T14:01:15.278Z,30.18
2022-08-16T14:03:44.789Z,29.77
2022-08-16T14:06:12.584Z,30.07
2022-08-16T14:08:42.597Z,30.06
2022-08-16T14:11:14.440Z,29.99
2022-08-16T14:13:43.673Z,30.08
2022-08-16T14:16:23.551Z,30.34
2022-08-16T14:18:53.145Z,30.36
2022-08-16T14:21:23.571Z,30.37
2022-08-16T14:23:52.082Z,30.23
2022-08-16T14:26:21.068Z,30.25
2022-08-16T14:28:50.249Z,30.50
2022-08-16T14:31:17.966Z,30.52
2022-08-16T14:33:45.001Z,30.25
2022-08-16T14:36:11.961Z,30.06
2022-08-16T14:38:45.465Z,30.20
2022-08-16T14:41:13.468Z,30.34
2022-08-16T14:43:40.209Z,30.26
2022-08-16T14:46:07.569Z,30.20
2022-08-16T14:48:34.695Z,30.47
2022-08-16T14:51:01.681Z,30.52
2022-08-16T14:53:28.988Z,30.68
2022-08-16T14:55:59.689Z,30.33
2022-08-16T14:58:34.739Z,30.25
2022-08-16T15:01:04.336Z,30.48
2022-08-16T15:03:33.105Z,30.66
2022-08-16T15:06:04.009Z,30.78
2022-08-16T15:08:34.045Z,30.81
2022-08-16T15:11:03.576Z,30.74
2022-08-16T15:13:30.356Z,30.59
2022-08-16T15:16:02.298Z,30.53
2022-08-16T15:18:31.987Z,30.52
2022-08-16T15:21:00.571Z,30.43
2022-08-16T15:23:28.331Z,30.45
2022-08-16T15:26:03.005Z,30.72
2022-08-16T15:28:37.075Z,30.81
2022-08-16T15:31:09.257Z,30.72
2022-08-16T15:33:44.327Z,30.79
2022-08-16T15:36:17.974Z,30.59
2022-08-16T15:38:56.153Z,30.53
2022-08-16T15:41:54.981Z,30.65
2022-08-16T15:44:25.583Z,30.57
2022-08-16T15:46:59.949Z,30.71
2022-08-16T15:49:36.939Z,30.57
2022-08-16T15:52:06.939Z,30.57
2022-08-16T15:54:37.588Z,30.67
2022-08-16T15:57:19.902Z,30.81
2022-08-16T15:59:52.494Z,30.81
2022-08-16T16:02:27.304Z,30.77
2022-08-16T16:04:56.580Z,30.24
2022-08-16T16:07:23.647Z,30.34
2022-08-16T16:09:53.254Z,30.48
2022-08-16T16:12:51.714Z,30.53
2022-08-16T16:15:07.336Z,30.27
2022-08-16T16:17:34.234Z,30.14
2022-08-16T16:20:04.729Z,30.29
2022-08-16T16:22:31.707Z,30.35
2022-08-16T16:24:58.309Z,30.08
2022-08-16T16:27:25.264Z,30.25
2022-08-16T16:30:01.688Z,30.48
2022-08-16T16:32:33.226Z,30.44
2022-08-16T16:35:02.377Z,30.47
2022-08-16T16:37:30.942Z,30.60
2022-08-16T16:39:57.468Z,30.55
2022-08-16T16:42:29.264Z,30.53
2022-08-16T16:45:01.352Z,30.56
2022-08-16T16:47:29.914Z,30.70
2022-08-16T16:50:09.251Z,30.60
2022-08-16T16:52:43.889Z,30.76
2022-08-16T16:55:14.826Z,30.84
2022-08-16T16:58:00.955Z,30.62
2022-08-16T17:00:38.115Z,30.75
2022-08-16T17:03:06.087Z,30.79
2022-08-16T17:05:57.110Z,30.61
2022-08-16T17:08:29.006Z,30.71
2022-08-16T17:10:56.319Z,30.76
2022-08-16T17:13:24.444Z,30.77
2022-08-16T17:15:52.789Z,30.77
2022-08-16T17:19:02.017Z,30.78
2022-08-16T17:21:08.346Z,30.73
2022-08-16T17:23:59.723Z,30.66
2022-08-16T17:26:22.768Z,30.64
2022-08-16T17:29:02.237Z,30.73
2022-08-16T17:31:40.639Z,30.73
2022-08-16T17:34:29.529Z,30.71
2022-08-16T17:36:54.687Z,30.78
2022-08-16T17:39:21.472Z,30.65
2022-08-16T17:41:51.008Z,30.67
2022-08-16T17:44:19.205Z,30.78
2022-08-16T17:46:52.141Z,30.74
2022-08-16T17:49:19.265Z,30.76
2022-08-16T17:51:45.801Z,30.75
2022-08-16T17:54:18.300Z,30.71
2022-08-16T17:56:56.804Z,30.70
2022-08-16T17:59:24.097Z,30.66
2022-08-16T18:01:50.783Z,30.64
2022-08-16T18:04:48.399Z,30.59
2022-08-16T18:07:05.232Z,30.57
2022-08-16T18:09:31.794Z,30.53
2022-08-16T18:11:58.594Z,30.50
2022-08-16T18:14:51.234Z,30.46
2022-08-16T18:17:12.892Z,30.34
2022-08-16T18:19:39.503Z,30.39
2022-08-16T18:22:18.154Z,30.25
2022-08-16T18:24:46.212Z,30.29
2022-08-16T18:27:26.562Z,30.25
2022-08-16T18:29:54.094Z,30.22
2022-08-16T18:32:24.435Z,30.20
2022-08-16T18:34:51.257Z,30.12
2022-08-16T18:37:17.828Z,30.03
2022-08-16T18:39:44.416Z,30.01
2022-08-16T18:42:13.818Z,29.97
2022-08-16T18:44:42.910Z,29.81
2022-08-16T18:47:09.867Z,29.56
2022-08-16T18:49:36.852Z,29.48
2022-08-16T18:52:04.145Z,29.57
2022-08-16T18:54:33.191Z,29.63
2022-08-16T18:57:01.521Z,29.47
2022-08-16T18:59:32.968Z,29.10
2022-08-16T19:02:04.066Z,29.08
2022-08-16T19:04:56.682Z,28.94
2022-08-16T19:07:30.654Z,28.91
2022-08-16T19:09:58.011Z,29.06
2022-08-16T19:12:47.067Z,29.09
2022-08-16T19:15:15.835Z,29.20
2022-08-16T19:17:44.115Z,29.22
2022-08-16T19:20:12.129Z,29.19
2022-08-16T19:23:02.310Z,29.23
2022-08-16T19:25:47.439Z,29.23
2022-08-16T19:28:50.169Z,29.17
2022-08-16T19:31:10.689Z,29.12
2022-08-16T19:33:39.687Z,29.08
2022-08-16T19:36:06.752Z,29.05
2022-08-16T19:38:34.797Z,29.06
2022-08-16T19:41:01.481Z,28.94
2022-08-16T19:43:28.182Z,28.95
2022-08-16T19:45:54.866Z,28.70
2022-08-16T19:48:22.073Z,28.83
2022-08-16T19:50:49.044Z,28.79
2022-08-16T19:53:19.166Z,28.77
2022-08-16T19:55:47.461Z,28.72
2022-08-16T19:58:15.369Z,28.67
2022-08-16T20:00:43.495Z,28.69
2022-08-16T20:03:15.532Z,28.44
2022-08-16T20:05:43.467Z,28.49
2022-08-16T20:08:11.273Z,28.41
2022-08-16T20:10:40.606Z,28.50
2022-08-16T20:13:14.051Z,28.45
2022-08-16T20:15:41.724Z,28.39
2022-08-16T20:18:17.220Z,28.37
2022-08-16T20:20:51.882Z,28.35
2022-08-16T20:23:24.853Z,28.33
2022-08-16T20:25:55.806Z,28.26
2022-08-16T20:28:39.419Z,28.19
2022-08-16T20:31:11.355Z,28.22
2022-08-16T20:33:37.921Z,28.26
2022-08-16T20:36:04.548Z,28.19
2022-08-16T20:38:31.192Z,28.00
2022-08-16T20:40:57.753Z,27.97
2022-08-16T20:43:24.408Z,27.80
2022-08-16T20:45:50.945Z,27.86
2022-08-16T20:48:17.623Z,27.82
2022-08-16T20:50:44.986Z,27.76
2022-08-16T20:53:11.728Z,27.66
2022-08-16T20:55:40.060Z,27.78
2022-08-16T20:58:07.783Z,27.73
2022-08-16T21:00:34.504Z,27.39
2022-08-16T21:03:06.569Z,27.79
2022-08-16T21:05:34.184Z,27.54
2022-08-16T21:08:00.774Z,27.48
2022-08-16T21:10:27.470Z,27.76
2022-08-16T21:13:02.729Z,27.67
2022-08-16T21:15:32.256Z,27.73
2022-08-16T21:18:00.147Z,27.82
2022-08-16T21:20:28.008Z,27.76
2022-08-16T21:23:01.915Z,27.78
2022-08-16T21:25:29.862Z,27.76
2022-08-16T21:28:39.908Z,27.71
2022-08-16T21:30:44.241Z,27.73
2022-08-16T21:33:17.787Z,27.71
2022-08-16T21:35:46.806Z,27.70
2022-08-16T21:38:28.855Z,27.72
2022-08-16T21:40:58.355Z,27.62
2022-08-16T21:43:25.457Z,27.64
2022-08-16T21:45:56.006Z,27.66
2022-08-16T21:48:34.605Z,27.62
2022-08-16T21:51:08.492Z,27.56
2022-08-16T21:53:36.192Z,27.57
2022-08-16T21:56:05.553Z,27.55
2022-08-16T21:58:32.533Z,27.67
2022-08-16T22:01:00.513Z,27.69
2022-08-16T22:03:27.926Z,27.57
2022-08-16T22:06:12.408Z,27.61
2022-08-16T22:08:49.885Z,27.58
2022-08-16T22:11:19.742Z,27.52
2022-08-16T22:13:57.259Z,27.53
2022-08-16T22:16:27.644Z,27.51
2022-08-16T22:18:54.559Z,27.44
2022-08-16T22:21:21.255Z,27.48
2022-08-16T22:23:57.183Z,27.48
2022-08-16T22:26:31.007Z,27.38
2022-08-16T22:29:04.491Z,27.36
2022-08-16T22:31:31.376Z,27.34
2022-08-16T22:33:58.306Z,27.38
2022-08-16T22:36:28.291Z,27.11
2022-08-16T22:38:58.703Z,26.87
2022-08-16T22:41:28.361Z,26.89
2022-08-16T22:43:55.692Z,27.02
2022-08-16T22:46:22.729Z,26.94
2022-08-16T22:48:50.693Z,26.86
2022-08-16T22:51:19.570Z,26.88
2022-08-16T22:53:46.217Z,26.81
2022-08-16T22:56:12.985Z,26.85
2022-08-16T22:58:39.575Z,26.82
2022-08-16T23:01:08.011Z,26.68
2022-08-16T23:03:35.749Z,26.92
2022-08-16T23:06:02.386Z,27.03
2022-08-16T23:08:39.539Z,27.02
2022-08-16T23:11:19.013Z,27.02
2022-08-16T23:13:49.833Z,26.99
2022-08-16T23:16:23.402Z,26.87
2022-08-16T23:18:52.900Z,26.92
2022-08-16T23:21:19.732Z,26.77
2022-08-16T23:23:48.989Z,26.86
2022-08-16T23:26:44.591Z,26.87
2022-08-16T23:29:05.401Z,26.87
2022-08-16T23:31:33.156Z,26.78
2022-08-16T23:34:00.286Z,26.80
2022-08-16T23:36:26.885Z,26.78
2022-08-16T23:38:53.692Z,26.75
2022-08-16T23:41:20.353Z,26.73
2022-08-16T23:43:46.975Z,26.73
2022-08-16T23:46:16.918Z,26.69
2022-08-16T23:50:01.699Z,26.65
2022-08-16T23:51:30.935Z,26.63
2022-08-16T23:53:57.483Z,26.62
2022-08-16T23:56:25.547Z,26.60
2022-08-16T23:58:58.278Z,26.55
